sensor_id;sensor_type;location;lat;lon;timestamp;P1;durP1;ratioP1;P2;durP2;ratioP2
16822;SDS011;8528;49.976;11.858;2023-09-12T00:01:37;10.03;;;7.23;;
16822;SDS011;8528;49.976;11.858;2023-09-12T00:04:05;10.60;;;7.67;;
16822;SDS011;8528;49.976;11.858;2023-09-12T00:06:31;7.93;;;7.13;;
16822;SDS011;8528;49.976;11.858;2023-09-12T00:08:58;9.53;;;7.50;;
16822;SDS011;8528;49.976;11.858;2023-09-12T00:11:25;8.90;;;7.80;;
16822;SDS011;8528;49.976;11.858;2023-09-12T00:13:53;8.07;;;7.27;;
16822;SDS011;8528;49.976;11.858;2023-09-12T00:16:20;10.37;;;8.20;;
16822;SDS011;8528;49.976;11.858;2023-09-12T00:18:47;8.87;;;7.80;;
16822;SDS011;8528;49.976;11.858;2023-09-12T00:21:14;10.40;;;8.60;;
16822;SDS011;8528;49.976;11.858;2023-09-12T00:23:41;8.63;;;7.60;;
16822;SDS011;8528;49.976;11.858;2023-09-12T00:26:08;9.73;;;7.50;;
16822;SDS011;8528;49.976;11.858;2023-09-12T00:28:36;6.90;;;6.20;;
16822;SDS011;8528;49.976;11.858;2023-09-12T00:31:04;7.50;;;6.80;;
16822;SDS011;8528;49.976;11.858;2023-09-12T00:33:32;7.87;;;6.37;;
16822;SDS011;8528;49.976;11.858;2023-09-12T00:35:58;7.23;;;6.50;;
16822;SDS011;8528;49.976;11.858;2023-09-12T00:38:25;6.97;;;6.33;;
16822;SDS011;8528;49.976;11.858;2023-09-12T00:40:52;8.90;;;7.60;;
16822;SDS011;8528;49.976;11.858;2023-09-12T00:43:19;8.77;;;7.87;;
16822;SDS011;8528;49.976;11.858;2023-09-12T00:45:46;10.00;;;7.23;;
16822;SDS011;8528;49.976;11.858;2023-09-12T00:48:13;8.40;;;7.33;;
16822;SDS011;8528;49.976;11.858;2023-09-12T00:50:42;8.00;;;6.90;;
16822;SDS011;8528;49.976;11.858;2023-09-12T00:53:10;10.07;;;7.43;;
16822;SDS011;8528;49.976;11.858;2023-09-12T00:55:38;9.20;;;7.50;;
16822;SDS011;8528;49.976;11.858;2023-09-12T00:58:10;9.27;;;7.50;;
16822;SDS011;8528;49.976;11.858;2023-09-12T01:00:37;8.37;;;7.47;;
16822;SDS011;8528;49.976;11.858;2023-09-12T01:03:04;10.13;;;7.50;;
16822;SDS011;8528;49.976;11.858;2023-09-12T01:05:32;9.60;;;7.17;;
16822;SDS011;8528;49.976;11.858;2023-09-12T01:08:01;8.63;;;7.10;;
16822;SDS011;8528;49.976;11.858;2023-09-12T01:10:29;8.67;;;7.30;;
16822;SDS011;8528;49.976;11.858;2023-09-12T01:12:56;11.73;;;7.77;;
16822;SDS011;8528;49.976;11.858;2023-09-12T01:15:23;10.97;;;7.60;;
16822;SDS011;8528;49.976;11.858;2023-09-12T01:17:50;7.77;;;6.97;;
16822;SDS011;8528;49.976;11.858;2023-09-12T01:20:31;9.33;;;7.47;;
16822;SDS011;8528;49.976;11.858;2023-09-12T01:26:02;11.73;;;7.00;;
16822;SDS011;8528;49.976;11.858;2023-09-12T01:28:59;7.77;;;6.77;;
16822;SDS011;8528;49.976;11.858;2023-09-12T01:31:28;7.40;;;6.70;;
16822;SDS011;8528;49.976;11.858;2023-09-12T01:33:56;7.83;;;6.70;;
16822;SDS011;8528;49.976;11.858;2023-09-12T01:36:26;8.30;;;6.83;;
16822;SDS011;8528;49.976;11.858;2023-09-12T01:38:53;7.57;;;6.67;;
16822;SDS011;8528;49.976;11.858;2023-09-12T01:41:20;7.73;;;6.97;;
16822;SDS011;8528;49.976;11.858;2023-09-12T01:43:47;7.50;;;6.70;;
16822;SDS011;8528;49.976;11.858;2023-09-12T01:46:16;7.50;;;6.40;;
16822;SDS011;8528;49.976;11.858;2023-09-12T01:48:45;8.20;;;7.10;;
16822;SDS011;8528;49.976;11.858;2023-09-12T01:51:18;9.80;;;7.57;;
16822;SDS011;8528;49.976;11.858;2023-09-12T01:53:46;8.77;;;7.10;;
16822;SDS011;8528;49.976;11.858;2023-09-12T01:56:14;8.07;;;7.10;;
16822;SDS011;8528;49.976;11.858;2023-09-12T01:58:40;11.23;;;7.73;;
16822;SDS011;8528;49.976;11.858;2023-09-12T02:01:08;11.17;;;7.30;;
16822;SDS011;8528;49.976;11.858;2023-09-12T02:03:36;8.23;;;6.37;;
16822;SDS011;8528;49.976;11.858;2023-09-12T02:06:03;9.57;;;7.47;;
16822;SDS011;8528;49.976;11.858;2023-09-12T02:08:30;7.67;;;6.03;;
16822;SDS011;8528;49.976;11.858;2023-09-12T02:10:57;9.10;;;6.40;;
16822;SDS011;8528;49.976;11.858;2023-09-12T02:13:26;9.97;;;7.27;;
16822;SDS011;8528;49.976;11.858;2023-09-12T02:16:00;9.80;;;7.87;;
16822;SDS011;8528;49.976;11.858;2023-09-12T02:18:28;8.77;;;7.30;;
16822;SDS011;8528;49.976;11.858;2023-09-12T02:20:57;8.50;;;7.00;;
16822;SDS011;8528;49.976;11.858;2023-09-12T02:23:25;11.10;;;7.07;;
16822;SDS011;8528;49.976;11.858;2023-09-12T02:25:51;9.47;;;7.00;;
16822;SDS011;8528;49.976;11.858;2023-09-12T02:28:18;7.43;;;6.67;;
16822;SDS011;8528;49.976;11.858;2023-09-12T02:30:46;8.27;;;7.30;;
16822;SDS011;8528;49.976;11.858;2023-09-12T02:33:12;6.83;;;5.70;;
16822;SDS011;8528;49.976;11.858;2023-09-12T02:35:39;8.07;;;5.77;;
16822;SDS011;8528;49.976;11.858;2023-09-12T02:38:06;8.27;;;5.23;;
16822;SDS011;8528;49.976;11.858;2023-09-12T02:40:34;7.07;;;5.73;;
16822;SDS011;8528;49.976;11.858;2023-09-12T02:43:01;8.77;;;5.80;;
16822;SDS011;8528;49.976;11.858;2023-09-12T02:45:29;7.70;;;7.00;;
16822;SDS011;8528;49.976;11.858;2023-09-12T02:47:55;9.07;;;7.97;;
16822;SDS011;8528;49.976;11.858;2023-09-12T02:50:23;7.57;;;6.73;;
16822;SDS011;8528;49.976;11.858;2023-09-12T02:52:50;10.53;;;6.70;;
16822;SDS011;8528;49.976;11.858;2023-09-12T02:55:17;9.07;;;6.50;;
16822;SDS011;8528;49.976;11.858;2023-09-12T02:57:44;8.23;;;6.80;;
16822;SDS011;8528;49.976;11.858;2023-09-12T03:00:11;8.97;;;6.53;;
16822;SDS011;8528;49.976;11.858;2023-09-12T03:02:38;7.73;;;6.50;;
16822;SDS011;8528;49.976;11.858;2023-09-12T03:05:05;8.70;;;6.77;;
16822;SDS011;8528;49.976;11.858;2023-09-12T03:07:32;7.03;;;6.33;;
16822;SDS011;8528;49.976;11.858;2023-09-12T03:09:59;9.63;;;6.63;;
16822;SDS011;8528;49.976;11.858;2023-09-12T03:12:26;12.37;;;6.93;;
16822;SDS011;8528;49.976;11.858;2023-09-12T03:14:53;8.87;;;6.33;;
16822;SDS011;8528;49.976;11.858;2023-09-12T03:17:20;8.70;;;6.50;;
16822;SDS011;8528;49.976;11.858;2023-09-12T03:19:47;7.53;;;6.43;;
16822;SDS011;8528;49.976;11.858;2023-09-12T03:22:14;7.83;;;5.87;;
16822;SDS011;8528;49.976;11.858;2023-09-12T03:24:41;8.23;;;6.13;;
16822;SDS011;8528;49.976;11.858;2023-09-12T03:27:08;10.70;;;6.33;;
16822;SDS011;8528;49.976;11.858;2023-09-12T03:29:35;7.00;;;5.70;;
16822;SDS011;8528;49.976;11.858;2023-09-12T03:32:02;8.23;;;5.87;;
16822;SDS011;8528;49.976;11.858;2023-09-12T03:34:30;8.10;;;6.27;;
16822;SDS011;8528;49.976;11.858;2023-09-12T03:36:57;8.27;;;6.37;;
16822;SDS011;8528;49.976;11.858;2023-09-12T03:39:23;7.30;;;5.90;;
16822;SDS011;8528;49.976;11.858;2023-09-12T03:41:51;7.20;;;6.50;;
16822;SDS011;8528;49.976;11.858;2023-09-12T03:44:18;7.33;;;5.63;;
16822;SDS011;8528;49.976;11.858;2023-09-12T03:46:45;7.00;;;6.03;;
16822;SDS011;8528;49.976;11.858;2023-09-12T03:49:11;8.57;;;5.67;;
16822;SDS011;8528;49.976;11.858;2023-09-12T03:51:38;7.10;;;5.83;;
16822;SDS011;8528;49.976;11.858;2023-09-12T03:54:05;8.37;;;5.70;;
16822;SDS011;8528;49.976;11.858;2023-09-12T03:56:32;10.40;;;5.60;;
16822;SDS011;8528;49.976;11.858;2023-09-12T03:58:59;8.23;;;5.50;;
16822;SDS011;8528;49.976;11.858;2023-09-12T04:01:26;6.37;;;5.70;;
16822;SDS011;8528;49.976;11.858;2023-09-12T04:03:54;8.33;;;6.83;;
16822;SDS011;8528;49.976;11.858;2023-09-12T04:06:21;8.57;;;6.23;;
16822;SDS011;8528;49.976;11.858;2023-09-12T04:08:48;8.17;;;6.07;;
16822;SDS011;8528;49.976;11.858;2023-09-12T04:11:16;6.70;;;6.00;;
16822;SDS011;8528;49.976;11.858;2023-09-12T04:13:53;11.00;;;6.00;;
16822;SDS011;8528;49.976;11.858;2023-09-12T04:16:20;10.37;;;6.10;;
16822;SDS011;8528;49.976;11.858;2023-09-12T04:18:47;7.57;;;6.07;;
16822;SDS011;8528;49.976;11.858;2023-09-12T04:21:14;8.23;;;6.87;;
16822;SDS011;8528;49.976;11.858;2023-09-12T04:23:41;10.90;;;6.70;;
16822;SDS011;8528;49.976;11.858;2023-09-12T04:26:08;9.13;;;6.73;;
16822;SDS011;8528;49.976;11.858;2023-09-12T04:28:35;7.17;;;5.93;;
16822;SDS011;8528;49.976;11.858;2023-09-12T04:31:03;7.47;;;6.33;;
16822;SDS011;8528;49.976;11.858;2023-09-12T04:33:30;9.17;;;6.83;;
16822;SDS011;8528;49.976;11.858;2023-09-12T04:35:57;8.37;;;6.37;;
16822;SDS011;8528;49.976;11.858;2023-09-12T04:38:27;10.30;;;6.70;;
16822;SDS011;8528;49.976;11.858;2023-09-12T04:40:55;15.10;;;7.47;;
16822;SDS011;8528;49.976;11.858;2023-09-12T04:43:22;8.63;;;6.50;;
16822;SDS011;8528;49.976;11.858;2023-09-12T04:45:49;8.50;;;6.97;;
16822;SDS011;8528;49.976;11.858;2023-09-12T04:48:16;9.93;;;6.73;;
16822;SDS011;8528;49.976;11.858;2023-09-12T04:50:43;9.23;;;7.27;;
16822;SDS011;8528;49.976;11.858;2023-09-12T04:53:10;11.33;;;7.90;;
16822;SDS011;8528;49.976;11.858;2023-09-12T04:55:37;12.30;;;6.70;;
16822;SDS011;8528;49.976;11.858;2023-09-12T04:58:05;9.50;;;6.03;;
16822;SDS011;8528;49.976;11.858;2023-09-12T05:00:32;9.43;;;6.07;;
16822;SDS011;8528;49.976;11.858;2023-09-12T05:03:01;8.70;;;5.90;;
16822;SDS011;8528;49.976;11.858;2023-09-12T05:05:50;9.63;;;6.03;;
16822;SDS011;8528;49.976;11.858;2023-09-12T05:08:17;9.57;;;6.03;;
16822;SDS011;8528;49.976;11.858;2023-09-12T05:10:46;8.10;;;5.70;;
16822;SDS011;8528;49.976;11.858;2023-09-12T05:13:13;10.43;;;5.83;;
16822;SDS011;8528;49.976;11.858;2023-09-12T05:15:40;13.60;;;6.73;;
16822;SDS011;8528;49.976;11.858;2023-09-12T05:18:08;9.73;;;6.00;;
16822;SDS011;8528;49.976;11.858;2023-09-12T05:20:35;9.17;;;5.13;;
16822;SDS011;8528;49.976;11.858;2023-09-12T05:23:03;6.83;;;4.90;;
16822;SDS011;8528;49.976;11.858;2023-09-12T05:25:30;8.97;;;5.43;;
16822;SDS011;8528;49.976;11.858;2023-09-12T05:27:56;9.83;;;6.17;;
16822;SDS011;8528;49.976;11.858;2023-09-12T05:30:24;9.17;;;6.00;;
16822;SDS011;8528;49.976;11.858;2023-09-12T05:32:51;9.27;;;5.73;;
16822;SDS011;8528;49.976;11.858;2023-09-12T05:35:18;10.13;;;5.47;;
16822;SDS011;8528;49.976;11.858;2023-09-12T05:38:06;8.83;;;5.63;;
16822;SDS011;8528;49.976;11.858;2023-09-12T05:40:33;9.27;;;5.37;;
16822;SDS011;8528;49.976;11.858;2023-09-12T05:43:00;8.10;;;6.53;;
16822;SDS011;8528;49.976;11.858;2023-09-12T05:45:27;13.17;;;7.70;;
16822;SDS011;8528;49.976;11.858;2023-09-12T05:47:57;9.00;;;7.67;;
16822;SDS011;8528;49.976;11.858;2023-09-12T05:50:24;8.27;;;5.47;;
16822;SDS011;8528;49.976;11.858;2023-09-12T05:52:51;8.83;;;6.67;;
16822;SDS011;8528;49.976;11.858;2023-09-12T05:55:18;13.43;;;7.70;;
16822;SDS011;8528;49.976;11.858;2023-09-12T05:57:45;12.50;;;10.10;;
16822;SDS011;8528;49.976;11.858;2023-09-12T06:00:14;14.37;;;8.90;;
16822;SDS011;8528;49.976;11.858;2023-09-12T06:02:41;9.80;;;7.07;;
16822;SDS011;8528;49.976;11.858;2023-09-12T06:05:08;8.30;;;6.70;;
16822;SDS011;8528;49.976;11.858;2023-09-12T06:07:35;8.57;;;6.30;;
16822;SDS011;8528;49.976;11.858;2023-09-12T06:10:07;5.90;;;5.20;;
16822;SDS011;8528;49.976;11.858;2023-09-12T06:12:34;14.33;;;6.23;;
16822;SDS011;8528;49.976;11.858;2023-09-12T06:15:03;9.70;;;4.80;;
16822;SDS011;8528;49.976;11.858;2023-09-12T06:17:31;7.20;;;4.25;;
16822;SDS011;8528;49.976;11.858;2023-09-12T06:19:58;5.00;;;4.13;;
16822;SDS011;8528;49.976;11.858;2023-09-12T06:22:28;10.15;;;4.85;;
16822;SDS011;8528;49.976;11.858;2023-09-12T06:24:58;11.07;;;4.85;;
16822;SDS011;8528;49.976;11.858;2023-09-12T06:27:25;10.50;;;4.85;;
16822;SDS011;8528;49.976;11.858;2023-09-12T06:29:52;10.00;;;4.72;;
16822;SDS011;8528;49.976;11.858;2023-09-12T06:32:19;9.27;;;4.60;;
16822;SDS011;8528;49.976;11.858;2023-09-12T06:34:45;4.22;;;3.83;;
16822;SDS011;8528;49.976;11.858;2023-09-12T06:37:13;10.82;;;5.25;;
16822;SDS011;8528;49.976;11.858;2023-09-12T06:39:40;5.95;;;3.85;;
16822;SDS011;8528;49.976;11.858;2023-09-12T06:42:08;4.55;;;4.10;;
16822;SDS011;8528;49.976;11.858;2023-09-12T06:44:36;6.57;;;4.85;;
16822;SDS011;8528;49.976;11.858;2023-09-12T06:47:06;6.10;;;4.93;;
16822;SDS011;8528;49.976;11.858;2023-09-12T06:49:32;5.53;;;4.53;;
16822;SDS011;8528;49.976;11.858;2023-09-12T06:52:01;6.70;;;4.55;;
16822;SDS011;8528;49.976;11.858;2023-09-12T06:54:28;8.15;;;4.85;;
16822;SDS011;8528;49.976;11.858;2023-09-12T06:56:55;7.97;;;5.07;;
16822;SDS011;8528;49.976;11.858;2023-09-12T06:59:23;7.47;;;5.13;;
16822;SDS011;8528;49.976;11.858;2023-09-12T07:01:49;6.40;;;4.60;;
16822;SDS011;8528;49.976;11.858;2023-09-12T07:04:17;6.85;;;4.90;;
16822;SDS011;8528;49.976;11.858;2023-09-12T07:06:43;5.32;;;4.22;;
16822;SDS011;8528;49.976;11.858;2023-09-12T07:09:11;6.82;;;5.05;;
16822;SDS011;8528;49.976;11.858;2023-09-12T07:11:41;7.25;;;5.20;;
16822;SDS011;8528;49.976;11.858;2023-09-12T07:14:08;5.80;;;4.55;;
16822;SDS011;8528;49.976;11.858;2023-09-12T07:16:36;4.85;;;4.45;;
16822;SDS011;8528;49.976;11.858;2023-09-12T07:19:04;5.15;;;4.75;;
16822;SDS011;8528;49.976;11.858;2023-09-12T07:21:31;6.05;;;5.10;;
16822;SDS011;8528;49.976;11.858;2023-09-12T07:24:01;6.85;;;4.90;;
16822;SDS011;8528;49.976;11.858;2023-09-12T07:26:27;5.18;;;4.47;;
16822;SDS011;8528;49.976;11.858;2023-09-12T07:28:54;5.15;;;4.65;;
16822;SDS011;8528;49.976;11.858;2023-09-12T07:31:22;11.32;;;4.95;;
16822;SDS011;8528;49.976;11.858;2023-09-12T07:33:49;9.73;;;8.93;;
16822;SDS011;8528;49.976;11.858;2023-09-12T07:36:16;6.63;;;5.90;;
16822;SDS011;8528;49.976;11.858;2023-09-12T07:38:46;5.90;;;5.38;;
16822;SDS011;8528;49.976;11.858;2023-09-12T07:41:13;5.30;;;4.80;;
16822;SDS011;8528;49.976;11.858;2023-09-12T07:43:40;7.78;;;5.40;;
16822;SDS011;8528;49.976;11.858;2023-09-12T07:46:08;6.70;;;5.10;;
16822;SDS011;8528;49.976;11.858;2023-09-12T07:48:35;6.55;;;4.85;;
16822;SDS011;8528;49.976;11.858;2023-09-12T07:51:06;7.05;;;5.53;;
16822;SDS011;8528;49.976;11.858;2023-09-12T07:53:41;6.03;;;5.25;;
16822;SDS011;8528;49.976;11.858;2023-09-12T07:56:09;5.60;;;5.07;;
16822;SDS011;8528;49.976;11.858;2023-09-12T07:58:39;5.32;;;4.82;;
16822;SDS011;8528;49.976;11.858;2023-09-12T08:01:08;5.90;;;5.40;;
16822;SDS011;8528;49.976;11.858;2023-09-12T08:03:36;5.82;;;5.20;;
16822;SDS011;8528;49.976;11.858;2023-09-12T08:06:06;6.00;;;5.40;;
16822;SDS011;8528;49.976;11.858;2023-09-12T08:08:33;6.68;;;5.70;;
16822;SDS011;8528;49.976;11.858;2023-09-12T08:11:01;6.50;;;5.95;;
16822;SDS011;8528;49.976;11.858;2023-09-12T08:13:28;6.68;;;6.03;;
16822;SDS011;8528;49.976;11.858;2023-09-12T08:15:57;6.88;;;5.53;;
16822;SDS011;8528;49.976;11.858;2023-09-12T08:18:26;5.65;;;5.15;;
16822;SDS011;8528;49.976;11.858;2023-09-12T08:20:55;6.50;;;5.90;;
16822;SDS011;8528;49.976;11.858;2023-09-12T08:23:22;6.90;;;5.15;;
16822;SDS011;8528;49.976;11.858;2023-09-12T08:25:48;5.43;;;5.03;;
16822;SDS011;8528;49.976;11.858;2023-09-12T08:28:16;6.10;;;5.10;;
16822;SDS011;8528;49.976;11.858;2023-09-12T08:30:44;6.50;;;5.90;;
16822;SDS011;8528;49.976;11.858;2023-09-12T08:33:12;6.43;;;5.57;;
16822;SDS011;8528;49.976;11.858;2023-09-12T08:35:40;7.35;;;6.40;;
16822;SDS011;8528;49.976;11.858;2023-09-12T08:38:07;6.30;;;5.70;;
16822;SDS011;8528;49.976;11.858;2023-09-12T08:40:35;8.05;;;6.78;;
16822;SDS011;8528;49.976;11.858;2023-09-12T08:43:02;6.88;;;6.18;;
16822;SDS011;8528;49.976;11.858;2023-09-12T08:45:32;6.38;;;5.78;;
16822;SDS011;8528;49.976;11.858;2023-09-12T08:48:03;7.25;;;5.93;;
16822;SDS011;8528;49.976;11.858;2023-09-12T08:50:31;7.18;;;6.13;;
16822;SDS011;8528;49.976;11.858;2023-09-12T08:53:00;5.90;;;5.40;;
16822;SDS011;8528;49.976;11.858;2023-09-12T08:55:34;6.88;;;6.25;;
16822;SDS011;8528;49.976;11.858;2023-09-12T08:58:03;6.32;;;5.82;;
16822;SDS011;8528;49.976;11.858;2023-09-12T09:00:31;6.80;;;6.30;;
16822;SDS011;8528;49.976;11.858;2023-09-12T09:02:59;10.32;;;6.45;;
16822;SDS011;8528;49.976;11.858;2023-09-12T09:05:27;6.22;;;5.30;;
16822;SDS011;8528;49.976;11.858;2023-09-12T09:07:55;7.03;;;6.15;;
16822;SDS011;8528;49.976;11.858;2023-09-12T09:10:25;6.35;;;5.80;;
16822;SDS011;8528;49.976;11.858;2023-09-12T09:13:15;7.00;;;6.30;;
16822;SDS011;8528;49.976;11.858;2023-09-12T09:15:42;7.43;;;5.50;;
16822;SDS011;8528;49.976;11.858;2023-09-12T09:18:09;5.85;;;5.32;;
16822;SDS011;8528;49.976;11.858;2023-09-12T09:20:38;7.10;;;5.25;;
16822;SDS011;8528;49.976;11.858;2023-09-12T09:23:08;7.18;;;6.43;;
16822;SDS011;8528;49.976;11.858;2023-09-12T09:25:41;6.57;;;5.78;;
16822;SDS011;8528;49.976;11.858;2023-09-12T09:28:19;5.72;;;5.20;;
16822;SDS011;8528;49.976;11.858;2023-09-12T09:30:48;5.35;;;4.90;;
16822;SDS011;8528;49.976;11.858;2023-09-12T09:33:18;6.32;;;5.55;;
16822;SDS011;8528;49.976;11.858;2023-09-12T09:35:48;5.32;;;4.80;;
16822;SDS011;8528;49.976;11.858;2023-09-12T09:38:15;5.40;;;5.00;;
16822;SDS011;8528;49.976;11.858;2023-09-12T09:40:46;5.80;;;5.10;;
16822;SDS011;8528;49.976;11.858;2023-09-12T09:43:19;5.32;;;4.70;;
16822;SDS011;8528;49.976;11.858;2023-09-12T09:45:47;5.30;;;4.82;;
16822;SDS011;8528;49.976;11.858;2023-09-12T09:48:18;6.95;;;5.70;;
16822;SDS011;8528;49.976;11.858;2023-09-12T09:50:49;7.70;;;5.03;;
16822;SDS011;8528;49.976;11.858;2023-09-12T09:53:21;5.82;;;4.45;;
16822;SDS011;8528;49.976;11.858;2023-09-12T09:56:13;5.40;;;4.90;;
16822;SDS011;8528;49.976;11.858;2023-09-12T09:58:51;5.72;;;5.07;;
16822;SDS011;8528;49.976;11.858;2023-09-12T10:01:23;5.30;;;4.70;;
16822;SDS011;8528;49.976;11.858;2023-09-12T10:04:00;5.80;;;4.97;;
16822;SDS011;8528;49.976;11.858;2023-09-12T10:06:27;10.15;;;4.82;;
16822;SDS011;8528;49.976;11.858;2023-09-12T10:08:56;10.18;;;4.80;;
16822;SDS011;8528;49.976;11.858;2023-09-12T10:11:25;5.28;;;4.70;;
16822;SDS011;8528;49.976;11.858;2023-09-12T10:13:57;4.60;;;4.20;;
16822;SDS011;8528;49.976;11.858;2023-09-12T10:16:32;5.68;;;4.28;;
16822;SDS011;8528;49.976;11.858;2023-09-12T10:19:07;5.72;;;4.32;;
16822;SDS011;8528;49.976;11.858;2023-09-12T10:21:37;5.05;;;4.60;;
16822;SDS011;8528;49.976;11.858;2023-09-12T10:24:23;6.72;;;4.35;;
16822;SDS011;8528;49.976;11.858;2023-09-12T10:26:52;5.20;;;4.10;;
16822;SDS011;8528;49.976;11.858;2023-09-12T10:29:21;4.53;;;3.80;;
16822;SDS011;8528;49.976;11.858;2023-09-12T10:31:49;6.63;;;4.38;;
16822;SDS011;8528;49.976;11.858;2023-09-12T10:34:16;4.65;;;4.25;;
16822;SDS011;8528;49.976;11.858;2023-09-12T10:36:44;6.22;;;4.30;;
16822;SDS011;8528;49.976;11.858;2023-09-12T10:39:12;6.47;;;4.95;;
16822;SDS011;8528;49.976;11.858;2023-09-12T10:41:41;5.53;;;4.60;;
16822;SDS011;8528;49.976;11.858;2023-09-12T10:44:11;6.85;;;4.97;;
16822;SDS011;8528;49.976;11.858;2023-09-12T10:46:42;6.47;;;4.95;;
16822;SDS011;8528;49.976;11.858;2023-09-12T10:49:11;6.30;;;4.80;;
16822;SDS011;8528;49.976;11.858;2023-09-12T10:51:40;7.13;;;5.18;;
16822;SDS011;8528;49.976;11.858;2023-09-12T10:54:15;5.00;;;4.50;;
16822;SDS011;8528;49.976;11.858;2023-09-12T10:57:02;7.03;;;4.43;;
16822;SDS011;8528;49.976;11.858;2023-09-12T10:59:30;6.22;;;4.22;;
16822;SDS011;8528;49.976;11.858;2023-09-12T11:05:00;5.70;;;3.95;;
16822;SDS011;8528;49.976;11.858;2023-09-12T11:07:32;6.72;;;4.53;;
16822;SDS011;8528;49.976;11.858;2023-09-12T11:10:21;5.63;;;4.30;;
16822;SDS011;8528;49.976;11.858;2023-09-12T11:12:49;5.30;;;4.30;;
16822;SDS011;8528;49.976;11.858;2023-09-12T11:15:22;6.85;;;4.28;;
16822;SDS011;8528;49.976;11.858;2023-09-12T11:17:59;7.10;;;4.25;;
16822;SDS011;8528;49.976;11.858;2023-09-12T11:20:47;6.35;;;4.30;;
16822;SDS011;8528;49.976;11.858;2023-09-12T11:23:32;5.78;;;4.63;;
16822;SDS011;8528;49.976;11.858;2023-09-12T11:26:04;7.60;;;4.68;;
16822;SDS011;8528;49.976;11.858;2023-09-12T11:28:33;6.57;;;4.60;;
16822;SDS011;8528;49.976;11.858;2023-09-12T11:31:00;6.25;;;4.68;;
16822;SDS011;8528;49.976;11.858;2023-09-12T11:33:27;7.20;;;4.50;;
16822;SDS011;8528;49.976;11.858;2023-09-12T11:35:55;7.50;;;4.22;;
16822;SDS011;8528;49.976;11.858;2023-09-12T11:38:27;6.65;;;4.30;;
16822;SDS011;8528;49.976;11.858;2023-09-12T11:40:56;6.47;;;4.50;;
16822;SDS011;8528;49.976;11.858;2023-09-12T11:43:25;8.43;;;4.70;;
16822;SDS011;8528;49.976;11.858;2023-09-12T11:45:54;6.57;;;4.03;;
16822;SDS011;8528;49.976;11.858;2023-09-12T11:48:22;8.20;;;4.03;;
16822;SDS011;8528;49.976;11.858;2023-09-12T11:50:51;5.18;;;4.53;;
16822;SDS011;8528;49.976;11.858;2023-09-12T11:53:23;7.07;;;4.68;;
16822;SDS011;8528;49.976;11.858;2023-09-12T11:55:58;7.68;;;5.03;;
16822;SDS011;8528;49.976;11.858;2023-09-12T11:58:26;7.85;;;4.40;;
16822;SDS011;8528;49.976;11.858;2023-09-12T12:00:55;6.45;;;4.60;;
16822;SDS011;8528;49.976;11.858;2023-09-12T12:03:24;5.35;;;4.63;;
16822;SDS011;8528;49.976;11.858;2023-09-12T12:05:53;8.32;;;5.45;;
16822;SDS011;8528;49.976;11.858;2023-09-12T12:08:22;10.15;;;5.10;;
16822;SDS011;8528;49.976;11.858;2023-09-12T12:10:53;6.53;;;3.97;;
16822;SDS011;8528;49.976;11.858;2023-09-12T12:13:21;7.63;;;4.43;;
16822;SDS011;8528;49.976;11.858;2023-09-12T12:15:48;8.75;;;4.50;;
16822;SDS011;8528;49.976;11.858;2023-09-12T12:18:15;6.28;;;4.18;;
16822;SDS011;8528;49.976;11.858;2023-09-12T12:20:42;5.00;;;4.38;;
16822;SDS011;8528;49.976;11.858;2023-09-12T12:23:09;8.15;;;4.57;;
16822;SDS011;8528;49.976;11.858;2023-09-12T12:25:37;6.05;;;4.60;;
16822;SDS011;8528;49.976;11.858;2023-09-12T12:28:04;7.22;;;4.50;;
16822;SDS011;8528;49.976;11.858;2023-09-12T12:30:31;6.90;;;5.50;;
16822;SDS011;8528;49.976;11.858;2023-09-12T12:33:06;9.75;;;4.63;;
16822;SDS011;8528;49.976;11.858;2023-09-12T12:36:01;7.47;;;4.80;;
16822;SDS011;8528;49.976;11.858;2023-09-12T12:38:35;6.25;;;4.60;;
16822;SDS011;8528;49.976;11.858;2023-09-12T12:41:26;7.35;;;4.72;;
16822;SDS011;8528;49.976;11.858;2023-09-12T12:44:01;6.70;;;4.60;;
16822;SDS011;8528;49.976;11.858;2023-09-12T12:46:30;7.50;;;4.25;;
16822;SDS011;8528;49.976;11.858;2023-09-12T12:48:57;7.78;;;4.63;;
16822;SDS011;8528;49.976;11.858;2023-09-12T12:51:24;5.82;;;5.10;;
16822;SDS011;8528;49.976;11.858;2023-09-12T12:53:55;6.53;;;5.20;;
16822;SDS011;8528;49.976;11.858;2023-09-12T12:56:29;5.45;;;4.93;;
16822;SDS011;8528;49.976;11.858;2023-09-12T12:58:58;9.43;;;5.65;;
16822;SDS011;8528;49.976;11.858;2023-09-12T13:01:29;8.40;;;5.68;;
16822;SDS011;8528;49.976;11.858;2023-09-12T13:03:56;7.80;;;6.68;;
16822;SDS011;8528;49.976;11.858;2023-09-12T13:06:23;7.93;;;6.28;;
16822;SDS011;8528;49.976;11.858;2023-09-12T13:08:52;7.97;;;6.68;;
16822;SDS011;8528;49.976;11.858;2023-09-12T13:11:20;7.15;;;6.28;;
16822;SDS011;8528;49.976;11.858;2023-09-12T13:13:47;7.35;;;6.22;;
16822;SDS011;8528;49.976;11.858;2023-09-12T13:16:17;7.03;;;6.43;;
16822;SDS011;8528;49.976;11.858;2023-09-12T13:18:44;6.65;;;5.93;;
16822;SDS011;8528;49.976;11.858;2023-09-12T13:21:12;6.82;;;6.13;;
16822;SDS011;8528;49.976;11.858;2023-09-12T13:23:38;7.05;;;6.35;;
16822;SDS011;8528;49.976;11.858;2023-09-12T13:26:09;6.47;;;5.97;;
16822;SDS011;8528;49.976;11.858;2023-09-12T13:28:36;8.27;;;6.63;;
16822;SDS011;8528;49.976;11.858;2023-09-12T13:31:03;7.18;;;6.50;;
16822;SDS011;8528;49.976;11.858;2023-09-12T13:33:30;9.13;;;6.18;;
16822;SDS011;8528;49.976;11.858;2023-09-12T13:35:58;9.63;;;6.70;;
16822;SDS011;8528;49.976;11.858;2023-09-12T13:38:25;7.22;;;6.20;;
16822;SDS011;8528;49.976;11.858;2023-09-12T13:40:51;6.45;;;5.85;;
16822;SDS011;8528;49.976;11.858;2023-09-12T13:43:18;8.93;;;5.88;;
16822;SDS011;8528;49.976;11.858;2023-09-12T13:45:46;8.52;;;6.43;;
16822;SDS011;8528;49.976;11.858;2023-09-12T13:48:13;7.13;;;5.97;;
16822;SDS011;8528;49.976;11.858;2023-09-12T13:50:40;9.73;;;6.00;;
16822;SDS011;8528;49.976;11.858;2023-09-12T13:53:09;8.05;;;6.35;;
16822;SDS011;8528;49.976;11.858;2023-09-12T13:55:36;9.50;;;6.13;;
16822;SDS011;8528;49.976;11.858;2023-09-12T13:58:22;9.30;;;6.05;;
16822;SDS011;8528;49.976;11.858;2023-09-12T14:00:50;8.32;;;5.93;;
16822;SDS011;8528;49.976;11.858;2023-09-12T14:03:17;9.57;;;6.38;;
16822;SDS011;8528;49.976;11.858;2023-09-12T14:05:44;9.40;;;6.35;;
16822;SDS011;8528;49.976;11.858;2023-09-12T14:08:12;7.65;;;6.53;;
16822;SDS011;8528;49.976;11.858;2023-09-12T14:10:40;10.60;;;7.05;;
16822;SDS011;8528;49.976;11.858;2023-09-12T14:13:07;6.57;;;5.97;;
16822;SDS011;8528;49.976;11.858;2023-09-12T14:15:37;8.38;;;7.07;;
16822;SDS011;8528;49.976;11.858;2023-09-12T14:18:04;9.05;;;6.68;;
16822;SDS011;8528;49.976;11.858;2023-09-12T14:20:31;11.57;;;7.22;;
16822;SDS011;8528;49.976;11.858;2023-09-12T14:22:58;8.95;;;6.40;;
16822;SDS011;8528;49.976;11.858;2023-09-12T14:25:25;8.75;;;6.43;;
16822;SDS011;8528;49.976;11.858;2023-09-12T14:27:53;7.68;;;6.65;;
16822;SDS011;8528;49.976;11.858;2023-09-12T14:30:20;8.75;;;6.18;;
16822;SDS011;8528;49.976;11.858;2023-09-12T14:32:49;9.40;;;6.50;;
16822;SDS011;8528;49.976;11.858;2023-09-12T14:35:16;8.10;;;6.65;;
16822;SDS011;8528;49.976;11.858;2023-09-12T14:37:42;8.32;;;6.13;;
16822;SDS011;8528;49.976;11.858;2023-09-12T14:40:09;7.68;;;6.10;;
16822;SDS011;8528;49.976;11.858;2023-09-12T14:42:40;8.13;;;6.68;;
16822;SDS011;8528;49.976;11.858;2023-09-12T14:45:07;10.13;;;7.03;;
16822;SDS011;8528;49.976;11.858;2023-09-12T14:47:35;8.05;;;7.25;;
16822;SDS011;8528;49.976;11.858;2023-09-12T14:50:02;8.05;;;7.25;;
16822;SDS011;8528;49.976;11.858;2023-09-12T14:52:30;10.18;;;6.88;;
16822;SDS011;8528;49.976;11.858;2023-09-12T14:54:57;10.50;;;7.15;;
16822;SDS011;8528;49.976;11.858;2023-09-12T14:57:25;12.70;;;7.18;;
16822;SDS011;8528;49.976;11.858;2023-09-12T14:59:52;8.55;;;7.13;;
16822;SDS011;8528;49.976;11.858;2023-09-12T15:02:19;7.78;;;6.90;;